Accueil
METAR-TAF:

METAR-TAF

Aéroports :

Base aérienne de Coxyde

Coxyde, Belgique

latitude: 51-05N, longitude: 002-39E, altitude: 4 m

Observation

Le bulletin a été fait il y a 47 minutes, à 17:55 UTC
Vent 8 kt de nord-est
Température 20°C
Humidité 68%
Pression 1019 hPa
Visibilité 10 km ou plus

METAR: EBFN 151755Z AUTO 05008KT 9999 NCD 20/14 Q1019 BLU

Heure: 20:42 (18:42 UTC)

Prévision

Le bulletin a été fait il y a 3 heures et 1 minutes, à 15:41 UTC
Prévision valable du 15 à 19 UTC au 16 à 07 UTC
Vent 10 kt de nord-est
Visibilité 10 km ou plus
Nuages épars à une hauteur de 4000 ft
Evoluant progressivement
du 15 à 22 UTC au 15 à 24 UTC
Probabilité 40% :
Temporairement
du 16 à 02 UTC au 16 à 05 UTC
Visibilité: 7000 m

TAF: EBFN 151541Z 1519/1607 04010KT 9999 SCT040 BECMG 1522/1524 130KT PROB40 TEMPO 1602/1605 7000

Observations et prévisions météorologiques de plus de 4000 aéroports (messages METAR et TAF).

Les stations disponibles sont représentées par des disques jaunes et rouges sur la carte.

Passer la souris dessus pour voir le nom de la station.

Cliquer dessus pour voir les observations et prévisions météorologiques.

Pour changer de carte: cliquez sur les boutons verts avec une croix noire pour zoomer, sur le bouton vert avec un tiret pour effectuer un zoom arrière, ou sur les flèches vertes pour les cartes adjacentes.


METAR-TAF: